createdAt,value
2018-09-20T00:01:37.639Z,7.92
2018-09-20T00:04:05.917Z,8.25
2018-09-20T00:06:34.189Z,8.20
2018-09-20T00:09:02.422Z,8.65
2018-09-20T00:11:30.691Z,8.08
2018-09-20T00:13:58.948Z,8.05
2018-09-20T00:16:27.204Z,8.43
2018-09-20T00:18:55.437Z,8.30
2018-09-20T00:21:23.669Z,7.97
2018-09-20T00:23:51.890Z,8.45
2018-09-20T00:26:20.179Z,8.50
2018-09-20T00:28:48.402Z,8.85
2018-09-20T00:31:16.651Z,8.10
2018-09-20T00:33:44.969Z,8.53
2018-09-20T00:36:13.199Z,8.30
2018-09-20T00:38:41.455Z,7.85
2018-09-20T00:41:09.719Z,8.55
2018-09-20T00:43:37.955Z,8.85
2018-09-20T00:46:06.448Z,8.08
2018-09-20T00:48:34.729Z,8.40
2018-09-20T00:51:02.961Z,8.38
2018-09-20T00:53:31.221Z,8.20
2018-09-20T00:55:59.452Z,8.30
2018-09-20T00:58:27.717Z,8.45
2018-09-20T01:00:56.085Z,8.05
2018-09-20T01:03:24.413Z,7.75
2018-09-20T01:05:52.653Z,8.23
2018-09-20T01:08:20.900Z,7.60
2018-09-20T01:10:49.167Z,8.10
2018-09-20T01:13:24.189Z,8.68
2018-09-20T01:15:52.379Z,8.58
2018-09-20T01:18:20.596Z,8.58
2018-09-20T01:20:48.823Z,8.23
2018-09-20T01:23:17.101Z,8.15
2018-09-20T01:25:45.386Z,8.48
2018-09-20T01:28:13.611Z,9.40
2018-09-20T01:30:41.842Z,9.10
2018-09-20T01:33:10.073Z,8.85
2018-09-20T01:35:38.291Z,9.23
2018-09-20T01:38:06.596Z,8.78
2018-09-20T01:40:34.807Z,8.88
2018-09-20T01:43:03.049Z,8.83
2018-09-20T01:45:31.274Z,8.93
2018-09-20T01:47:59.498Z,8.63
2018-09-20T01:50:27.734Z,8.63
2018-09-20T01:52:55.980Z,8.70
2018-09-20T01:55:24.236Z,8.33
2018-09-20T01:57:52.507Z,8.48
2018-09-20T02:00:20.770Z,8.55
2018-09-20T02:02:49.145Z,8.70
2018-09-20T02:05:17.429Z,8.35
2018-09-20T02:07:45.676Z,8.00
2018-09-20T02:10:14.088Z,8.93
2018-09-20T02:12:42.330Z,7.87
2018-09-20T02:15:10.588Z,8.68
2018-09-20T02:17:38.948Z,8.65
2018-09-20T02:20:07.181Z,8.63
2018-09-20T02:22:35.454Z,8.30
2018-09-20T02:25:03.733Z,9.10
2018-09-20T02:27:31.992Z,8.68
2018-09-20T02:30:00.254Z,8.50
2018-09-20T02:32:28.766Z,9.23
2018-09-20T02:34:57.026Z,9.50
2018-09-20T02:37:25.279Z,8.95
2018-09-20T02:39:53.552Z,9.88
2018-09-20T02:42:21.784Z,9.13
2018-09-20T02:44:50.042Z,9.70
2018-09-20T02:47:18.254Z,9.43
2018-09-20T02:49:46.489Z,9.48
2018-09-20T02:52:14.764Z,9.70
2018-09-20T02:54:42.998Z,8.83
2018-09-20T02:57:11.252Z,8.20
2018-09-20T02:59:39.552Z,9.40
2018-09-20T03:02:07.883Z,9.53
2018-09-20T03:04:36.123Z,9.73
2018-09-20T03:07:04.369Z,8.75
2018-09-20T03:09:32.613Z,9.00
2018-09-20T03:12:00.893Z,8.45
2018-09-20T03:14:29.135Z,8.30
2018-09-20T03:16:57.421Z,8.65
2018-09-20T03:19:25.687Z,8.75
2018-09-20T03:21:53.938Z,8.38
2018-09-20T03:24:22.206Z,8.85
2018-09-20T03:26:50.447Z,9.63
2018-09-20T03:29:18.680Z,8.90
2018-09-20T03:31:46.948Z,9.13
2018-09-20T03:34:15.192Z,9.13
2018-09-20T03:36:43.453Z,8.73
2018-09-20T03:39:12.284Z,8.28
2018-09-20T03:41:40.900Z,8.73
2018-09-20T03:44:09.137Z,9.28
2018-09-20T03:46:37.397Z,8.68
2018-09-20T03:49:05.638Z,8.80
2018-09-20T03:51:33.902Z,9.00
2018-09-20T03:54:02.273Z,9.23
2018-09-20T03:56:30.551Z,8.68
2018-09-20T03:58:58.811Z,9.28
2018-09-20T04:01:27.407Z,8.38
2018-09-20T04:03:55.669Z,8.78
2018-09-20T04:06:23.941Z,9.00
2018-09-20T04:08:52.624Z,8.68
2018-09-20T04:11:21.254Z,8.23
2018-09-20T04:13:49.530Z,9.20
2018-09-20T04:16:17.793Z,8.93
2018-09-20T04:18:46.155Z,9.68
2018-09-20T04:21:18.699Z,8.53
2018-09-20T04:23:46.995Z,8.68
2018-09-20T04:26:15.312Z,9.45
2018-09-20T04:28:43.785Z,8.50
2018-09-20T04:31:12.055Z,9.55
2018-09-20T04:33:40.348Z,9.38
2018-09-20T04:36:08.649Z,8.90
2018-09-20T04:38:36.925Z,9.30
2018-09-20T04:41:05.181Z,9.33
2018-09-20T04:43:35.293Z,9.05
2018-09-20T04:46:03.533Z,9.45
2018-09-20T04:48:31.826Z,9.40
2018-09-20T04:51:00.136Z,10.15
2018-09-20T04:53:28.402Z,9.95
2018-09-20T04:55:56.626Z,9.90
2018-09-20T04:58:24.988Z,9.45
2018-09-20T05:00:53.256Z,10.18
2018-09-20T05:03:21.526Z,9.95
2018-09-20T05:05:49.840Z,10.32
2018-09-20T05:08:18.165Z,9.58
2018-09-20T05:10:46.398Z,9.70
2018-09-20T05:13:14.995Z,9.03
2018-09-20T05:15:43.693Z,10.35
2018-09-20T05:18:12.268Z,10.48
2018-09-20T05:20:40.538Z,9.85
2018-09-20T05:23:08.791Z,10.93
2018-09-20T05:25:37.104Z,10.48
2018-09-20T05:28:05.515Z,10.53
2018-09-20T05:30:33.737Z,11.15
2018-09-20T05:33:01.998Z,9.93
2018-09-20T05:35:30.282Z,10.55
2018-09-20T05:37:58.528Z,10.32
2018-09-20T05:40:26.804Z,10.10
2018-09-20T05:42:55.040Z,10.18
2018-09-20T05:45:23.365Z,10.65
2018-09-20T05:47:51.623Z,10.45
2018-09-20T05:50:19.922Z,10.75
2018-09-20T05:52:48.185Z,11.00
2018-09-20T05:55:16.486Z,10.05
2018-09-20T05:57:44.760Z,11.22
2018-09-20T06:00:13.007Z,10.68
2018-09-20T06:02:41.269Z,10.48
2018-09-20T06:05:09.531Z,11.43
2018-09-20T06:07:37.790Z,10.80
2018-09-20T06:10:06.037Z,11.08
2018-09-20T06:12:34.328Z,10.80
2018-09-20T06:15:02.578Z,10.28
2018-09-20T06:17:30.841Z,10.30
2018-09-20T06:19:59.102Z,9.80
2018-09-20T06:22:27.335Z,11.05
2018-09-20T06:24:55.575Z,11.88
2018-09-20T06:27:23.836Z,11.55
2018-09-20T06:29:52.152Z,11.30
2018-09-20T06:32:20.412Z,11.40
2018-09-20T06:34:48.682Z,11.60
2018-09-20T06:37:16.931Z,11.75
2018-09-20T06:39:45.276Z,11.73
2018-09-20T06:42:13.535Z,12.23
2018-09-20T06:44:42.045Z,11.48
2018-09-20T06:47:10.366Z,11.10
2018-09-20T06:49:38.641Z,10.43
2018-09-20T06:52:06.922Z,11.53
2018-09-20T06:54:35.175Z,11.40
2018-09-20T06:57:03.490Z,11.05
2018-09-20T06:59:31.783Z,11.35
2018-09-20T07:02:00.037Z,11.30
2018-09-20T07:04:28.299Z,10.72
2018-09-20T07:06:56.555Z,10.63
2018-09-20T07:09:24.816Z,10.75
2018-09-20T07:11:53.085Z,10.88
2018-09-20T07:14:21.374Z,10.72
2018-09-20T07:16:49.607Z,10.53
2018-09-20T07:19:17.875Z,10.30
2018-09-20T07:21:46.166Z,10.58
2018-09-20T07:24:14.468Z,9.88
2018-09-20T07:26:42.709Z,10.60
2018-09-20T07:29:10.962Z,10.65
2018-09-20T07:31:39.218Z,11.10
2018-09-20T07:34:07.463Z,10.78
2018-09-20T07:36:35.687Z,10.32
2018-09-20T07:39:05.725Z,11.15
2018-09-20T07:41:33.994Z,10.05
2018-09-20T07:44:02.258Z,10.70
2018-09-20T07:46:30.517Z,10.53
2018-09-20T07:48:58.845Z,9.90
2018-09-20T07:51:27.096Z,9.25
2018-09-20T07:53:55.380Z,9.60
2018-09-20T07:56:23.631Z,9.90
2018-09-20T07:58:51.866Z,9.30
2018-09-20T08:01:20.147Z,9.15
2018-09-20T08:03:48.762Z,9.75
2018-09-20T08:06:17.017Z,8.50
2018-09-20T08:08:45.296Z,8.55
2018-09-20T08:11:13.527Z,8.85
2018-09-20T08:13:41.785Z,8.53
2018-09-20T08:16:10.034Z,9.55
2018-09-20T08:18:38.281Z,8.68
2018-09-20T08:21:07.115Z,9.40
2018-09-20T08:23:35.397Z,9.10
2018-09-20T08:26:03.603Z,9.15
2018-09-20T08:28:31.915Z,8.70
2018-09-20T08:31:00.150Z,8.15
2018-09-20T08:33:28.377Z,9.10
2018-09-20T08:35:56.612Z,8.60
2018-09-20T08:38:24.840Z,8.63
2018-09-20T08:40:53.121Z,8.10
2018-09-20T08:43:21.406Z,9.70
2018-09-20T08:45:49.656Z,9.25
2018-09-20T08:48:17.903Z,10.32
2018-09-20T08:50:46.159Z,8.28
2018-09-20T08:53:14.451Z,8.43
2018-09-20T08:55:42.762Z,8.98
2018-09-20T08:58:10.991Z,9.68
2018-09-20T09:00:39.272Z,8.63
2018-09-20T09:03:07.550Z,9.35
2018-09-20T09:05:35.823Z,9.15
2018-09-20T09:08:04.085Z,9.38
2018-09-20T09:10:32.347Z,9.30
2018-09-20T09:13:00.571Z,9.30
2018-09-20T09:15:28.878Z,7.67
2018-09-20T09:17:57.123Z,8.68
2018-09-20T09:20:25.411Z,8.65
2018-09-20T09:22:53.688Z,8.75
2018-09-20T09:25:21.904Z,9.15
2018-09-20T09:27:50.199Z,8.80
2018-09-20T09:30:18.440Z,8.68
2018-09-20T09:32:46.644Z,7.70
2018-09-20T09:35:14.875Z,7.72
2018-09-20T09:37:43.175Z,7.50
2018-09-20T09:40:11.436Z,7.72
2018-09-20T09:42:39.665Z,8.15
2018-09-20T09:45:07.933Z,8.63
2018-09-20T09:47:36.247Z,7.33
2018-09-20T09:50:04.501Z,7.80
2018-09-20T09:52:32.766Z,7.92
2018-09-20T09:55:01.048Z,6.08
2018-09-20T09:57:29.290Z,7.35
2018-09-20T09:59:57.561Z,7.12
2018-09-20T10:02:25.854Z,6.85
2018-09-20T10:04:54.892Z,6.47
2018-09-20T10:07:23.167Z,7.30
2018-09-20T10:09:51.382Z,6.62
2018-09-20T10:12:19.670Z,6.33
2018-09-20T10:14:47.919Z,5.40
2018-09-20T10:17:16.215Z,6.70
2018-09-20T10:19:44.448Z,6.28
2018-09-20T10:22:12.698Z,6.22
2018-09-20T10:24:40.909Z,5.67
2018-09-20T10:27:09.187Z,5.72
2018-09-20T10:29:43.888Z,6.00
2018-09-20T10:32:12.172Z,5.58
2018-09-20T10:34:40.383Z,6.37
2018-09-20T10:37:08.629Z,5.47
2018-09-20T10:39:36.884Z,5.67
2018-09-20T10:42:05.144Z,5.60
2018-09-20T10:44:33.445Z,5.83
2018-09-20T10:47:01.662Z,5.78
2018-09-20T10:49:29.894Z,4.97
2018-09-20T10:51:58.158Z,5.17
2018-09-20T10:54:26.457Z,5.33
2018-09-20T10:56:54.655Z,5.33
2018-09-20T10:59:23.034Z,5.03
2018-09-20T11:01:51.265Z,4.95
2018-09-20T11:04:19.493Z,5.17
2018-09-20T11:06:47.737Z,5.00
2018-09-20T11:09:19.001Z,5.17
2018-09-20T11:11:47.243Z,4.78
2018-09-20T11:14:15.492Z,5.05
2018-09-20T11:16:43.745Z,5.30
2018-09-20T11:19:11.964Z,4.97
2018-09-20T11:21:40.247Z,5.05
2018-09-20T11:24:08.501Z,4.95
2018-09-20T11:26:36.747Z,5.10
2018-09-20T11:29:05.069Z,5.00
2018-09-20T11:31:33.559Z,4.17
2018-09-20T11:34:01.811Z,4.87
2018-09-20T11:36:30.082Z,4.30
2018-09-20T11:38:58.318Z,4.67
2018-09-20T11:41:26.579Z,5.20
2018-09-20T11:43:54.809Z,4.60
2018-09-20T11:46:23.043Z,5.10
2018-09-20T11:48:51.286Z,4.35
2018-09-20T11:51:19.539Z,4.80
2018-09-20T11:53:48.004Z,4.92
2018-09-20T11:56:16.255Z,4.90
2018-09-20T11:58:44.517Z,5.20
2018-09-20T12:01:12.802Z,4.60
2018-09-20T12:03:41.023Z,3.98
2018-09-20T12:06:09.310Z,4.75
2018-09-20T12:08:37.600Z,4.20
2018-09-20T12:11:05.832Z,3.98
2018-09-20T12:13:34.095Z,4.12
2018-09-20T12:16:02.357Z,4.28
2018-09-20T12:18:30.667Z,4.50
2018-09-20T12:20:58.915Z,4.10
2018-09-20T12:23:27.146Z,4.22
2018-09-20T12:25:55.428Z,3.95
2018-09-20T12:28:23.900Z,3.92
2018-09-20T12:30:52.179Z,3.87
2018-09-20T12:33:20.473Z,4.42
2018-09-20T12:35:48.847Z,4.22
2018-09-20T12:38:16.974Z,4.25
2018-09-20T12:40:45.260Z,4.12
2018-09-20T12:43:13.652Z,4.85
2018-09-20T12:45:41.826Z,4.30
2018-09-20T12:48:10.102Z,4.10
2018-09-20T12:50:39.312Z,4.30
2018-09-20T12:53:08.538Z,4.20
2018-09-20T12:55:36.795Z,3.92
2018-09-20T12:58:05.051Z,4.20
2018-09-20T13:00:33.531Z,4.20
2018-09-20T13:03:01.859Z,4.17
2018-09-20T13:05:30.200Z,4.35
2018-09-20T13:07:58.529Z,4.50
2018-09-20T13:10:26.899Z,4.12
2018-09-20T13:12:55.122Z,4.92
2018-09-20T13:15:23.401Z,4.83
2018-09-20T13:17:51.692Z,4.30
2018-09-20T13:20:19.958Z,4.45
2018-09-20T13:22:48.178Z,4.45
2018-09-20T13:25:16.446Z,4.65
2018-09-20T13:27:44.903Z,3.87
2018-09-20T13:30:13.137Z,4.28
2018-09-20T13:32:41.469Z,4.53
2018-09-20T13:35:09.751Z,4.22
2018-09-20T13:37:38.029Z,4.80
2018-09-20T13:40:06.317Z,4.40
2018-09-20T13:42:34.579Z,4.35
2018-09-20T13:45:02.860Z,4.10
2018-09-20T13:47:31.147Z,4.35
2018-09-20T13:49:59.413Z,4.75
2018-09-20T13:52:27.671Z,4.22
2018-09-20T13:54:55.879Z,4.17
2018-09-20T13:57:24.115Z,4.62
2018-09-20T13:59:52.352Z,4.62
2018-09-20T14:02:20.590Z,4.55
2018-09-20T14:04:48.844Z,3.58
2018-09-20T14:07:17.100Z,4.30
2018-09-20T14:09:45.340Z,3.95
2018-09-20T14:12:13.605Z,4.53
2018-09-20T14:14:41.888Z,4.50
2018-09-20T14:17:10.147Z,3.85
2018-09-20T14:19:38.361Z,3.92
2018-09-20T14:22:06.632Z,3.77
2018-09-20T14:24:34.871Z,3.70
2018-09-20T14:27:03.180Z,3.87
2018-09-20T14:29:31.447Z,4.10
2018-09-20T14:31:59.684Z,3.77
2018-09-20T14:34:27.946Z,3.90
2018-09-20T14:36:56.195Z,3.77
2018-09-20T14:39:24.494Z,4.17
2018-09-20T14:41:52.741Z,3.75
2018-09-20T14:44:21.017Z,3.67
2018-09-20T14:46:49.280Z,4.28
2018-09-20T14:49:17.615Z,4.03
2018-09-20T14:51:45.881Z,3.80
2018-09-20T14:54:14.111Z,3.92
2018-09-20T14:56:42.403Z,4.20
2018-09-20T14:59:10.677Z,3.90
2018-09-20T15:01:38.927Z,4.12
2018-09-20T15:04:07.187Z,4.05
2018-09-20T15:06:35.435Z,4.00
2018-09-20T15:09:04.145Z,3.87
2018-09-20T15:11:32.460Z,4.05
2018-09-20T15:14:00.685Z,4.08
2018-09-20T15:16:28.928Z,4.15
2018-09-20T15:18:57.154Z,4.33
2018-09-20T15:21:25.399Z,3.77
2018-09-20T15:23:53.662Z,4.20
2018-09-20T15:26:21.995Z,4.53
2018-09-20T15:28:50.289Z,4.50
2018-09-20T15:31:18.543Z,4.70
2018-09-20T15:33:46.853Z,4.37
2018-09-20T15:36:15.083Z,4.80
2018-09-20T15:38:43.343Z,4.85
2018-09-20T15:41:11.615Z,4.30
2018-09-20T15:43:39.881Z,4.20
2018-09-20T15:46:08.330Z,4.33
2018-09-20T15:48:36.567Z,4.45
2018-09-20T15:51:04.815Z,4.80
2018-09-20T15:53:33.080Z,4.35
2018-09-20T15:56:01.343Z,4.55
2018-09-20T15:58:30.351Z,4.72
2018-09-20T16:00:58.587Z,5.42
2018-09-20T16:03:26.912Z,4.42
2018-09-20T16:05:55.233Z,4.80
2018-09-20T16:08:23.458Z,4.80
2018-09-20T16:10:51.759Z,4.65
2018-09-20T16:13:20.024Z,4.62
2018-09-20T16:15:48.300Z,4.85
2018-09-20T16:18:16.562Z,4.85
2018-09-20T16:20:44.995Z,4.70
2018-09-20T16:24:11.570Z,4.80
2018-09-20T16:26:39.855Z,5.55
2018-09-20T16:29:20.374Z,4.45
2018-09-20T16:32:01.008Z,5.03
2018-09-20T16:34:42.182Z,5.05
2018-09-20T16:37:19.324Z,5.33
2018-09-20T16:39:49.519Z,5.08
2018-09-20T16:42:19.217Z,5.17
2018-09-20T16:44:47.448Z,5.47
2018-09-20T16:47:16.062Z,5.83
2018-09-20T16:49:45.048Z,4.83
2018-09-20T16:52:13.298Z,5.50
2018-09-20T16:54:41.814Z,5.08
2018-09-20T16:57:10.341Z,4.75
2018-09-20T16:59:39.054Z,5.25
2018-09-20T17:02:07.730Z,5.28
2018-09-20T17:04:36.425Z,5.42
2018-09-20T17:07:05.134Z,5.30
2018-09-20T17:09:33.793Z,5.28
2018-09-20T17:12:02.069Z,4.80
2018-09-20T17:14:30.347Z,5.15
2018-09-20T17:16:58.542Z,5.45
2018-09-20T17:19:27.248Z,5.97
2018-09-20T17:21:55.582Z,5.55
2018-09-20T17:24:23.834Z,5.35
2018-09-20T17:26:52.061Z,5.65
2018-09-20T17:29:20.312Z,5.42
2018-09-20T17:31:48.935Z,5.87
2018-09-20T17:34:17.646Z,5.08
2018-09-20T17:36:46.090Z,5.42
2018-09-20T17:39:15.209Z,4.92
2018-09-20T17:41:44.914Z,5.12
2018-09-20T17:44:13.151Z,5.20
2018-09-20T17:46:41.385Z,5.90
2018-09-20T17:49:09.612Z,5.80
2018-09-20T17:51:38.105Z,6.03
2018-09-20T17:54:06.786Z,5.50
2018-09-20T17:56:35.554Z,5.67
2018-09-20T17:59:04.112Z,5.53
2018-09-20T18:01:32.608Z,5.92
2018-09-20T18:04:01.194Z,6.15
2018-09-20T18:06:29.462Z,5.45
2018-09-20T18:08:57.990Z,5.72
2018-09-20T18:11:26.610Z,5.70
2018-09-20T18:13:54.942Z,6.42
2018-09-20T18:16:23.727Z,5.85
2018-09-20T18:18:52.020Z,6.08
2018-09-20T18:21:20.294Z,6.35
2018-09-20T18:23:48.518Z,6.37
2018-09-20T18:26:17.205Z,6.67
2018-09-20T18:28:45.876Z,6.30
2018-09-20T18:31:14.200Z,6.65
2018-09-20T18:33:42.786Z,7.25
2018-09-20T18:36:11.091Z,6.65
2018-09-20T18:38:39.354Z,6.97
2018-09-20T18:41:07.628Z,6.75
2018-09-20T18:43:36.166Z,6.92
2018-09-20T18:46:04.864Z,7.22
2018-09-20T18:51:24.116Z,11.08
2018-09-20T18:53:52.387Z,7.00
2018-09-20T18:56:20.883Z,7.78
2018-09-20T18:58:49.394Z,6.87
2018-09-20T19:01:18.428Z,7.70
2018-09-20T19:03:47.483Z,7.58
2018-09-20T19:06:16.752Z,6.95
2018-09-20T19:08:45.083Z,6.85
2018-09-20T19:11:13.759Z,6.45
2018-09-20T19:13:42.299Z,6.35
2018-09-20T19:16:10.624Z,6.47
2018-09-20T19:18:39.487Z,6.90
2018-09-20T19:21:08.006Z,6.55
2018-09-20T19:23:36.339Z,6.72
2018-09-20T19:26:04.606Z,6.60
2018-09-20T19:28:33.315Z,5.90
2018-09-20T19:31:01.904Z,6.55
2018-09-20T19:33:30.491Z,6.78
2018-09-20T19:35:58.904Z,6.25
2018-09-20T19:38:27.414Z,6.62
2018-09-20T19:43:30.247Z,6.65
2018-09-20T19:45:58.456Z,7.58
2018-09-20T19:48:26.707Z,8.48
2018-09-20T19:50:55.077Z,8.58
2018-09-20T19:53:23.626Z,8.05
2018-09-20T19:55:51.839Z,7.92
2018-09-20T19:58:20.112Z,7.67
2018-09-20T20:00:49.078Z,8.13
2018-09-20T20:03:17.389Z,9.10
2018-09-20T20:05:45.932Z,9.25
2018-09-20T20:08:14.144Z,8.85
2018-09-20T20:10:42.444Z,8.80
2018-09-20T20:13:11.120Z,7.92
2018-09-20T20:15:39.389Z,7.15
2018-09-20T20:18:07.635Z,7.47
2018-09-20T20:20:36.564Z,7.30
2018-09-20T20:23:04.824Z,7.12
2018-09-20T20:25:33.045Z,6.70
2018-09-20T20:28:01.622Z,6.05
2018-09-20T20:30:30.095Z,5.92
2018-09-20T20:32:58.367Z,5.65
2018-09-20T20:35:26.856Z,6.00
2018-09-20T20:37:55.103Z,5.87
2018-09-20T20:40:23.929Z,6.50
2018-09-20T20:42:52.824Z,6.12
2018-09-20T20:45:21.386Z,6.33
2018-09-20T20:47:50.002Z,7.00
2018-09-20T20:50:18.514Z,6.20
2018-09-20T20:52:46.763Z,6.10
2018-09-20T20:55:15.015Z,5.70
2018-09-20T20:57:43.513Z,5.85
2018-09-20T21:00:11.751Z,6.30
2018-09-20T21:02:39.990Z,6.53
2018-09-20T21:05:08.224Z,6.40
2018-09-20T21:07:36.757Z,6.17
2018-09-20T21:10:05.013Z,5.67
2018-09-20T21:12:33.243Z,6.17
2018-09-20T21:15:01.475Z,6.20
2018-09-20T21:17:29.763Z,6.15
2018-09-20T21:19:57.984Z,6.10
2018-09-20T21:22:26.607Z,6.22
2018-09-20T21:24:55.340Z,6.25
2018-09-20T21:27:30.287Z,6.40
2018-09-20T21:29:58.546Z,6.30
2018-09-20T21:32:27.190Z,5.75
2018-09-20T21:34:55.402Z,6.47
2018-09-20T21:37:23.601Z,6.83
2018-09-20T21:39:51.855Z,6.65
2018-09-20T21:42:20.056Z,6.37
2018-09-20T21:44:48.271Z,6.62
2018-09-20T21:47:16.571Z,6.28
2018-09-20T21:49:44.958Z,6.72
2018-09-20T21:52:13.616Z,6.87
2018-09-20T21:54:41.845Z,6.70
2018-09-20T21:57:10.131Z,6.62
2018-09-20T21:59:38.337Z,6.30
2018-09-20T22:02:06.638Z,6.40
2018-09-20T22:04:35.080Z,6.65
2018-09-20T22:07:03.311Z,6.65
2018-09-20T22:09:31.880Z,6.80
2018-09-20T22:12:00.092Z,6.40
2018-09-20T22:14:28.303Z,6.40
2018-09-20T22:16:56.534Z,6.45
2018-09-20T22:19:24.773Z,6.75
2018-09-20T22:21:52.992Z,6.92
2018-09-20T22:24:21.242Z,6.90
2018-09-20T22:26:49.825Z,6.80
2018-09-20T22:29:18.018Z,6.35
2018-09-20T22:31:46.894Z,7.40
2018-09-20T22:34:15.422Z,6.90
2018-09-20T22:36:43.672Z,7.00
2018-09-20T22:39:12.123Z,7.28
2018-09-20T22:41:40.341Z,7.08
2018-09-20T22:44:08.590Z,7.20
2018-09-20T22:46:36.803Z,6.40
2018-09-20T22:49:05.035Z,7.62
2018-09-20T22:51:33.261Z,7.17
2018-09-20T22:54:01.497Z,6.67
2018-09-20T22:56:30.082Z,6.95
2018-09-20T22:58:58.288Z,6.90
2018-09-20T23:01:26.518Z,7.58
2018-09-20T23:03:55.181Z,7.22
2018-09-20T23:06:23.385Z,7.50
2018-09-20T23:08:51.899Z,7.15
2018-09-20T23:11:20.916Z,7.03
2018-09-20T23:13:49.100Z,7.70
2018-09-20T23:16:17.319Z,7.70
2018-09-20T23:18:45.560Z,7.28
2018-09-20T23:21:20.136Z,7.55
2018-09-20T23:23:48.329Z,7.08
2018-09-20T23:26:16.541Z,7.33
2018-09-20T23:28:45.116Z,7.33
2018-09-20T23:31:13.353Z,7.22
2018-09-20T23:33:41.576Z,7.20
2018-09-20T23:36:09.791Z,7.30
2018-09-20T23:38:37.991Z,6.70
2018-09-20T23:41:06.550Z,7.53
2018-09-20T23:43:34.767Z,7.30
2018-09-20T23:46:02.948Z,7.10
2018-09-20T23:48:31.178Z,7.45
2018-09-20T23:50:59.364Z,7.22
2018-09-20T23:53:27.575Z,6.90
2018-09-20T23:55:55.746Z,7.08
2018-09-20T23:58:23.976Z,7.08
